Leo Star I — ELXC6 — position and weather

sailwx.info

Track history (hours):
 
Tides and Currents Weather Stations Pressure Air Temp Water Temp Dewpoint Dewpoint Depression Visibility Wind Speed Wind Dir Waves Ship Positions

Leo Star I

Last reported at 2015-Aug-04 07:11 UTC. Time now 2015-Aug-04 17:56 UTC.
Position N 37°15' E 005°45'.

Length 157 m; draft 7.4 m.

Type: Cargo ship. MMSI: 636015065.

Date/timePositionNaut miles runAvg speedWind from/ knotsBaromVisibWave heightAir tempDewpointWater temp
2015-Aug-04 07:11N 37°15' E 005°45'711.8
2015-Aug-04 06:33N 37°15' E 005°36'1211.7
2015-Aug-04 05:33N 37°14' E 005°21'1211.9
2015-Aug-04 04:33N 37°13' E 005°06'1211.8
2015-Aug-04 03:33N 37°13' E 004°51'1212.2
2015-Aug-04 02:32N 37°12' E 004°36'1212.1
2015-Aug-04 01:33N 37°11' E 004°21'1211.8
2015-Aug-04 00:30N 37°10' E 004°05'1111.6
2015-Aug-03 23:33N 37°09' E 003°52'1211.9
2015-Aug-03 22:33N 37°07' E 003°37'1211.9
2015-Aug-03 21:33N 37°05' E 003°22'1211.8
2015-Aug-03 20:33N 37°03' E 003°07'1211.6
2015-Aug-03 19:33N 37°02' E 002°53'1211.6
2015-Aug-03 18:32N 36°60' E 002°38'1111.4
2015-Aug-03 17:33N 36°57' E 002°25'1111.2
2015-Aug-03 16:33N 36°55' E 002°11'1110.9
2015-Aug-03 15:33N 36°53' E 001°58'1110.9
2015-Aug-03 14:33N 36°52' E 001°44'1111.0
2015-Aug-03 13:33N 36°51' E 001°31'1111.1
2015-Aug-03 12:33N 36°49' E 001°17'1212.1
2015-Aug-03 11:33N 36°47' E 001°02'1212.3
2015-Aug-03 10:33N 36°44' E 000°47'1212.0
2015-Aug-03 09:33N 36°41' E 000°33'1111.5
2015-Aug-03 08:33N 36°38' E 000°19'2511.8
2015-Aug-03 06:26N 36°35' W 000°12'1111.7
2015-Aug-03 05:31N 36°33' W 000°25'1111.3
2015-Aug-03 04:33N 36°31' W 000°38'1111.3
2015-Aug-03 03:32N 36°28' W 000°52'1111.3
2015-Aug-03 02:33N 36°25' W 001°06'1110.9
2015-Aug-03 01:33N 36°23' W 001°19'1010.5
2015-Aug-03 00:33N 36°22' W 001°32'28411.3
2015-Aug-01 23:31N 35°06' W 007°09'1111.2
2015-Aug-01 22:33N 34°58' W 007°18'51010.6
2015-Jul-30 22:17N 28°13' W 013°21'2010.7
2015-Jul-30 20:23N 27°57' W 013°36'910.6
2015-Jul-30 19:32N 27°50' W 013°42'1010.5
2015-Jul-30 18:33N 27°42' W 013°50'1110.7
2015-Jul-30 17:32N 27°34' W 013°58'1110.8
2015-Jul-30 16:33N 27°26' W 014°06'1110.8
2015-Jul-30 15:32N 27°18' W 014°14'1110.9
2015-Jul-30 14:30N 27°09' W 014°22'  
Track history (hours):
 
Tides and Currents Weather Stations Pressure Air Temp Water Temp Dewpoint Dewpoint Depression Visibility Wind Speed Wind Dir Waves Ship Positions

Leo Star I

Last reported at 2015-Aug-04 07:11 UTC. Time now 2015-Aug-04 17:56 UTC.
Position N 37°15' E 005°45'.

Length 157 m; draft 7.4 m.

Type: Cargo ship. MMSI: 636015065.

Date/timePositionNaut miles runAvg speedWind from/ knotsBaromVisibWave heightAir tempDewpointWater temp
2015-Aug-04 07:11N 37°15' E 005°45'711.8
2015-Aug-04 06:33N 37°15' E 005°36'1211.7
2015-Aug-04 05:33N 37°14' E 005°21'1211.9
2015-Aug-04 04:33N 37°13' E 005°06'1211.8
2015-Aug-04 03:33N 37°13' E 004°51'1212.2
2015-Aug-04 02:32N 37°12' E 004°36'1212.1
2015-Aug-04 01:33N 37°11' E 004°21'1211.8
2015-Aug-04 00:30N 37°10' E 004°05'1111.6
2015-Aug-03 23:33N 37°09' E 003°52'1211.9
2015-Aug-03 22:33N 37°07' E 003°37'1211.9
2015-Aug-03 21:33N 37°05' E 003°22'1211.8
2015-Aug-03 20:33N 37°03' E 003°07'1211.6
2015-Aug-03 19:33N 37°02' E 002°53'1211.6
2015-Aug-03 18:32N 36°60' E 002°38'1111.4
2015-Aug-03 17:33N 36°57' E 002°25'1111.2
2015-Aug-03 16:33N 36°55' E 002°11'1110.9
2015-Aug-03 15:33N 36°53' E 001°58'1110.9
2015-Aug-03 14:33N 36°52' E 001°44'1111.0
2015-Aug-03 13:33N 36°51' E 001°31'1111.1
2015-Aug-03 12:33N 36°49' E 001°17'1212.1
2015-Aug-03 11:33N 36°47' E 001°02'1212.3
2015-Aug-03 10:33N 36°44' E 000°47'1212.0
2015-Aug-03 09:33N 36°41' E 000°33'1111.5
2015-Aug-03 08:33N 36°38' E 000°19'2511.8
2015-Aug-03 06:26N 36°35' W 000°12'1111.7
2015-Aug-03 05:31N 36°33' W 000°25'1111.3
2015-Aug-03 04:33N 36°31' W 000°38'1111.3
2015-Aug-03 03:32N 36°28' W 000°52'1111.3
2015-Aug-03 02:33N 36°25' W 001°06'1110.9
2015-Aug-03 01:33N 36°23' W 001°19'1010.5
2015-Aug-03 00:33N 36°22' W 001°32'28411.3
2015-Aug-01 23:31N 35°06' W 007°09'1111.2
2015-Aug-01 22:33N 34°58' W 007°18'51010.6
2015-Jul-30 22:17N 28°13' W 013°21'2010.7
2015-Jul-30 20:23N 27°57' W 013°36'910.6
2015-Jul-30 19:32N 27°50' W 013°42'1010.5
2015-Jul-30 18:33N 27°42' W 013°50'1110.7
2015-Jul-30 17:32N 27°34' W 013°58'1110.8
2015-Jul-30 16:33N 27°26' W 014°06'1110.8
2015-Jul-30 15:32N 27°18' W 014°14'1110.9
2015-Jul-30 14:30N 27°09' W 014°22'  

Dump ship's entire track history